sensor_id;sensor_type;location;lat;lon;timestamp;P1;durP1;ratioP1;P2;durP2;ratioP2
50337;SDS011;46221;51.178;5.900;2023-11-22T00:01:15;6.35;;;4.80;;
50337;SDS011;46221;51.178;5.900;2023-11-22T00:03:42;4.93;;;4.10;;
50337;SDS011;46221;51.178;5.900;2023-11-22T00:06:08;7.78;;;4.95;;
50337;SDS011;46221;51.178;5.900;2023-11-22T00:08:34;7.43;;;4.70;;
50337;SDS011;46221;51.178;5.900;2023-11-22T00:11:03;6.10;;;4.38;;
50337;SDS011;46221;51.178;5.900;2023-11-22T00:13:31;5.90;;;4.40;;
50337;SDS011;46221;51.178;5.900;2023-11-22T00:15:58;7.57;;;4.45;;
50337;SDS011;46221;51.178;5.900;2023-11-22T00:18:25;6.25;;;4.80;;
50337;SDS011;46221;51.178;5.900;2023-11-22T00:20:52;6.60;;;5.00;;
50337;SDS011;46221;51.178;5.900;2023-11-22T00:23:18;6.32;;;4.45;;
50337;SDS011;46221;51.178;5.900;2023-11-22T00:25:47;6.53;;;5.43;;
50337;SDS011;46221;51.178;5.900;2023-11-22T00:28:14;8.82;;;4.95;;
50337;SDS011;46221;51.178;5.900;2023-11-22T00:30:40;6.22;;;4.85;;
50337;SDS011;46221;51.178;5.900;2023-11-22T00:33:06;7.03;;;5.15;;
50337;SDS011;46221;51.178;5.900;2023-11-22T00:35:33;6.80;;;4.68;;
50337;SDS011;46221;51.178;5.900;2023-11-22T00:38:00;5.32;;;4.18;;
50337;SDS011;46221;51.178;5.900;2023-11-22T00:40:26;6.93;;;4.57;;
50337;SDS011;46221;51.178;5.900;2023-11-22T00:42:53;5.70;;;4.22;;
50337;SDS011;46221;51.178;5.900;2023-11-22T00:45:19;6.88;;;4.43;;
50337;SDS011;46221;51.178;5.900;2023-11-22T00:47:46;5.63;;;4.13;;
50337;SDS011;46221;51.178;5.900;2023-11-22T00:50:15;5.82;;;4.20;;
50337;SDS011;46221;51.178;5.900;2023-11-22T00:52:46;6.55;;;4.70;;
50337;SDS011;46221;51.178;5.900;2023-11-22T00:55:12;6.28;;;4.20;;
50337;SDS011;46221;51.178;5.900;2023-11-22T00:57:39;7.70;;;4.88;;
50337;SDS011;46221;51.178;5.900;2023-11-22T01:00:06;6.03;;;4.45;;
50337;SDS011;46221;51.178;5.900;2023-11-22T01:02:36;5.45;;;4.30;;
50337;SDS011;46221;51.178;5.900;2023-11-22T01:05:07;5.00;;;3.65;;
50337;SDS011;46221;51.178;5.900;2023-11-22T01:07:37;6.88;;;4.45;;
50337;SDS011;46221;51.178;5.900;2023-11-22T01:10:04;6.55;;;4.22;;
50337;SDS011;46221;51.178;5.900;2023-11-22T01:12:32;5.90;;;4.65;;
50337;SDS011;46221;51.178;5.900;2023-11-22T01:14:58;8.05;;;5.22;;
50337;SDS011;46221;51.178;5.900;2023-11-22T01:17:26;6.80;;;4.95;;
50337;SDS011;46221;51.178;5.900;2023-11-22T01:19:52;7.25;;;4.90;;
50337;SDS011;46221;51.178;5.900;2023-11-22T01:22:19;6.90;;;5.03;;
50337;SDS011;46221;51.178;5.900;2023-11-22T01:24:46;6.47;;;5.32;;
50337;SDS011;46221;51.178;5.900;2023-11-22T01:27:12;6.97;;;4.72;;
50337;SDS011;46221;51.178;5.900;2023-11-22T01:29:38;6.85;;;4.82;;
50337;SDS011;46221;51.178;5.900;2023-11-22T01:32:05;7.72;;;4.78;;
50337;SDS011;46221;51.178;5.900;2023-11-22T01:34:31;5.97;;;4.43;;
50337;SDS011;46221;51.178;5.900;2023-11-22T01:36:58;6.07;;;4.32;;
50337;SDS011;46221;51.178;5.900;2023-11-22T01:39:24;7.05;;;4.55;;
50337;SDS011;46221;51.178;5.900;2023-11-22T01:41:50;6.00;;;4.78;;
50337;SDS011;46221;51.178;5.900;2023-11-22T01:44:17;6.25;;;5.10;;
50337;SDS011;46221;51.178;5.900;2023-11-22T01:46:44;6.10;;;4.47;;
50337;SDS011;46221;51.178;5.900;2023-11-22T01:49:12;6.68;;;5.13;;
50337;SDS011;46221;51.178;5.900;2023-11-22T01:51:39;7.22;;;5.00;;
50337;SDS011;46221;51.178;5.900;2023-11-22T01:54:06;6.95;;;4.82;;
50337;SDS011;46221;51.178;5.900;2023-11-22T01:56:33;7.68;;;5.68;;
50337;SDS011;46221;51.178;5.900;2023-11-22T01:59:01;7.85;;;5.63;;
50337;SDS011;46221;51.178;5.900;2023-11-22T02:01:27;5.65;;;4.35;;
50337;SDS011;46221;51.178;5.900;2023-11-22T02:03:55;7.28;;;5.03;;
50337;SDS011;46221;51.178;5.900;2023-11-22T02:06:21;6.20;;;5.03;;
50337;SDS011;46221;51.178;5.900;2023-11-22T02:08:48;6.70;;;4.55;;
50337;SDS011;46221;51.178;5.900;2023-11-22T02:11:16;6.20;;;4.55;;
50337;SDS011;46221;51.178;5.900;2023-11-22T02:13:43;6.00;;;4.47;;
50337;SDS011;46221;51.178;5.900;2023-11-22T02:16:09;6.60;;;4.72;;
50337;SDS011;46221;51.178;5.900;2023-11-22T02:18:36;6.53;;;4.50;;
50337;SDS011;46221;51.178;5.900;2023-11-22T02:21:03;6.18;;;5.00;;
50337;SDS011;46221;51.178;5.900;2023-11-22T02:23:29;6.00;;;5.18;;
50337;SDS011;46221;51.178;5.900;2023-11-22T02:25:56;6.60;;;5.03;;
50337;SDS011;46221;51.178;5.900;2023-11-22T02:28:22;6.28;;;4.70;;
50337;SDS011;46221;51.178;5.900;2023-11-22T02:30:50;5.18;;;3.90;;
50337;SDS011;46221;51.178;5.900;2023-11-22T02:33:17;7.50;;;5.43;;
50337;SDS011;46221;51.178;5.900;2023-11-22T02:35:44;6.70;;;5.38;;
50337;SDS011;46221;51.178;5.900;2023-11-22T02:38:10;7.25;;;5.03;;
50337;SDS011;46221;51.178;5.900;2023-11-22T02:40:36;6.40;;;5.13;;
50337;SDS011;46221;51.178;5.900;2023-11-22T02:43:04;6.53;;;4.65;;
50337;SDS011;46221;51.178;5.900;2023-11-22T02:45:35;6.50;;;4.90;;
50337;SDS011;46221;51.178;5.900;2023-11-22T02:48:01;7.82;;;5.05;;
50337;SDS011;46221;51.178;5.900;2023-11-22T02:50:29;7.90;;;5.38;;
50337;SDS011;46221;51.178;5.900;2023-11-22T02:52:58;7.00;;;5.75;;
50337;SDS011;46221;51.178;5.900;2023-11-22T02:55:25;7.20;;;5.40;;
50337;SDS011;46221;51.178;5.900;2023-11-22T02:57:51;6.85;;;5.40;;
50337;SDS011;46221;51.178;5.900;2023-11-22T03:00:18;7.00;;;5.35;;
50337;SDS011;46221;51.178;5.900;2023-11-22T03:02:45;6.57;;;5.00;;
50337;SDS011;46221;51.178;5.900;2023-11-22T03:05:13;6.50;;;5.53;;
50337;SDS011;46221;51.178;5.900;2023-11-22T03:07:43;7.07;;;5.65;;
50337;SDS011;46221;51.178;5.900;2023-11-22T03:10:09;6.63;;;5.40;;
50337;SDS011;46221;51.178;5.900;2023-11-22T03:12:36;8.85;;;5.32;;
50337;SDS011;46221;51.178;5.900;2023-11-22T03:15:03;6.43;;;5.20;;
50337;SDS011;46221;51.178;5.900;2023-11-22T03:17:30;7.07;;;5.43;;
50337;SDS011;46221;51.178;5.900;2023-11-22T03:19:57;8.05;;;5.85;;
50337;SDS011;46221;51.178;5.900;2023-11-22T03:22:24;7.78;;;5.50;;
50337;SDS011;46221;51.178;5.900;2023-11-22T03:24:51;6.85;;;5.60;;
50337;SDS011;46221;51.178;5.900;2023-11-22T03:27:21;7.22;;;5.65;;
50337;SDS011;46221;51.178;5.900;2023-11-22T03:29:49;7.03;;;5.47;;
50337;SDS011;46221;51.178;5.900;2023-11-22T03:32:15;7.13;;;5.60;;
50337;SDS011;46221;51.178;5.900;2023-11-22T03:34:42;8.23;;;5.97;;
50337;SDS011;46221;51.178;5.900;2023-11-22T03:37:08;7.30;;;5.80;;
50337;SDS011;46221;51.178;5.900;2023-11-22T03:39:38;7.53;;;5.38;;
50337;SDS011;46221;51.178;5.900;2023-11-22T03:42:04;7.57;;;6.03;;
50337;SDS011;46221;51.178;5.900;2023-11-22T03:44:30;7.90;;;6.05;;
50337;SDS011;46221;51.178;5.900;2023-11-22T03:46:57;6.63;;;5.60;;
50337;SDS011;46221;51.178;5.900;2023-11-22T03:49:23;7.60;;;6.18;;
50337;SDS011;46221;51.178;5.900;2023-11-22T03:51:50;8.00;;;6.57;;
50337;SDS011;46221;51.178;5.900;2023-11-22T03:54:16;7.93;;;5.93;;
50337;SDS011;46221;51.178;5.900;2023-11-22T03:56:43;7.68;;;6.03;;
50337;SDS011;46221;51.178;5.900;2023-11-22T03:59:10;8.15;;;5.93;;
50337;SDS011;46221;51.178;5.900;2023-11-22T04:01:37;9.75;;;6.65;;
50337;SDS011;46221;51.178;5.900;2023-11-22T04:04:03;8.27;;;6.07;;
50337;SDS011;46221;51.178;5.900;2023-11-22T04:06:30;10.05;;;6.45;;
50337;SDS011;46221;51.178;5.900;2023-11-22T04:08:59;10.68;;;6.30;;
50337;SDS011;46221;51.178;5.900;2023-11-22T04:11:25;8.15;;;5.63;;
50337;SDS011;46221;51.178;5.900;2023-11-22T04:13:54;8.45;;;6.72;;
50337;SDS011;46221;51.178;5.900;2023-11-22T04:16:21;7.35;;;5.93;;
50337;SDS011;46221;51.178;5.900;2023-11-22T04:18:48;8.55;;;6.75;;
50337;SDS011;46221;51.178;5.900;2023-11-22T04:21:15;7.97;;;6.35;;
50337;SDS011;46221;51.178;5.900;2023-11-22T04:23:41;7.70;;;6.32;;
50337;SDS011;46221;51.178;5.900;2023-11-22T04:26:08;7.85;;;5.80;;
50337;SDS011;46221;51.178;5.900;2023-11-22T04:28:38;8.02;;;6.30;;
50337;SDS011;46221;51.178;5.900;2023-11-22T04:31:04;6.85;;;5.68;;
50337;SDS011;46221;51.178;5.900;2023-11-22T04:33:31;9.50;;;6.25;;
50337;SDS011;46221;51.178;5.900;2023-11-22T04:35:57;8.02;;;6.15;;
50337;SDS011;46221;51.178;5.900;2023-11-22T04:38:23;7.88;;;5.90;;
50337;SDS011;46221;51.178;5.900;2023-11-22T04:40:51;7.57;;;6.28;;
50337;SDS011;46221;51.178;5.900;2023-11-22T04:43:17;7.35;;;5.88;;
50337;SDS011;46221;51.178;5.900;2023-11-22T04:45:44;8.75;;;6.20;;
50337;SDS011;46221;51.178;5.900;2023-11-22T04:48:10;9.10;;;6.30;;
50337;SDS011;46221;51.178;5.900;2023-11-22T04:50:36;8.02;;;6.53;;
50337;SDS011;46221;51.178;5.900;2023-11-22T04:53:03;8.80;;;6.75;;
50337;SDS011;46221;51.178;5.900;2023-11-22T04:55:29;8.30;;;6.20;;
50337;SDS011;46221;51.178;5.900;2023-11-22T04:57:56;8.02;;;6.75;;
50337;SDS011;46221;51.178;5.900;2023-11-22T05:00:22;8.85;;;6.88;;
50337;SDS011;46221;51.178;5.900;2023-11-22T05:02:51;8.57;;;6.65;;
50337;SDS011;46221;51.178;5.900;2023-11-22T05:05:18;8.45;;;6.97;;
50337;SDS011;46221;51.178;5.900;2023-11-22T05:07:44;9.27;;;6.80;;
50337;SDS011;46221;51.178;5.900;2023-11-22T05:10:11;8.77;;;6.68;;
50337;SDS011;46221;51.178;5.900;2023-11-22T05:12:38;8.50;;;7.10;;
50337;SDS011;46221;51.178;5.900;2023-11-22T05:15:05;9.20;;;7.65;;
50337;SDS011;46221;51.178;5.900;2023-11-22T05:17:32;10.18;;;7.28;;
50337;SDS011;46221;51.178;5.900;2023-11-22T05:19:58;8.98;;;6.75;;
50337;SDS011;46221;51.178;5.900;2023-11-22T05:22:25;9.82;;;7.38;;
50337;SDS011;46221;51.178;5.900;2023-11-22T05:24:53;11.43;;;7.90;;
50337;SDS011;46221;51.178;5.900;2023-11-22T05:27:20;10.85;;;8.07;;
50337;SDS011;46221;51.178;5.900;2023-11-22T05:29:46;9.38;;;7.65;;
50337;SDS011;46221;51.178;5.900;2023-11-22T05:32:20;9.57;;;7.70;;
50337;SDS011;46221;51.178;5.900;2023-11-22T05:34:47;9.95;;;8.20;;
50337;SDS011;46221;51.178;5.900;2023-11-22T05:37:14;10.55;;;8.15;;
50337;SDS011;46221;51.178;5.900;2023-11-22T05:39:40;9.70;;;7.68;;
50337;SDS011;46221;51.178;5.900;2023-11-22T05:42:06;10.18;;;8.70;;
50337;SDS011;46221;51.178;5.900;2023-11-22T05:44:33;11.00;;;8.32;;
50337;SDS011;46221;51.178;5.900;2023-11-22T05:46:59;11.50;;;8.70;;
50337;SDS011;46221;51.178;5.900;2023-11-22T05:49:26;11.18;;;8.70;;
50337;SDS011;46221;51.178;5.900;2023-11-22T05:51:52;10.50;;;8.68;;
50337;SDS011;46221;51.178;5.900;2023-11-22T05:54:18;11.60;;;8.50;;
50337;SDS011;46221;51.178;5.900;2023-11-22T05:56:45;10.32;;;8.38;;
50337;SDS011;46221;51.178;5.900;2023-11-22T05:59:11;11.57;;;8.75;;
50337;SDS011;46221;51.178;5.900;2023-11-22T06:01:38;13.20;;;9.05;;
50337;SDS011;46221;51.178;5.900;2023-11-22T06:04:04;11.43;;;8.38;;
50337;SDS011;46221;51.178;5.900;2023-11-22T06:06:31;10.38;;;8.32;;
50337;SDS011;46221;51.178;5.900;2023-11-22T06:08:58;11.38;;;9.18;;
50337;SDS011;46221;51.178;5.900;2023-11-22T06:11:24;10.63;;;8.98;;
50337;SDS011;46221;51.178;5.900;2023-11-22T06:13:51;10.32;;;8.80;;
50337;SDS011;46221;51.178;5.900;2023-11-22T06:16:27;12.77;;;8.80;;
50337;SDS011;46221;51.178;5.900;2023-11-22T06:18:53;11.90;;;9.03;;
50337;SDS011;46221;51.178;5.900;2023-11-22T06:21:20;10.63;;;8.50;;
50337;SDS011;46221;51.178;5.900;2023-11-22T06:23:46;12.93;;;8.82;;
50337;SDS011;46221;51.178;5.900;2023-11-22T06:26:13;13.32;;;9.20;;
50337;SDS011;46221;51.178;5.900;2023-11-22T06:28:41;10.23;;;8.35;;
50337;SDS011;46221;51.178;5.900;2023-11-22T06:31:08;12.32;;;9.40;;
50337;SDS011;46221;51.178;5.900;2023-11-22T06:33:36;12.68;;;8.70;;
50337;SDS011;46221;51.178;5.900;2023-11-22T06:36:03;11.80;;;9.48;;
50337;SDS011;46221;51.178;5.900;2023-11-22T06:38:29;10.00;;;8.25;;
50337;SDS011;46221;51.178;5.900;2023-11-22T06:40:56;11.20;;;8.65;;
50337;SDS011;46221;51.178;5.900;2023-11-22T06:43:22;10.98;;;8.82;;
50337;SDS011;46221;51.178;5.900;2023-11-22T06:45:48;11.27;;;9.15;;
50337;SDS011;46221;51.178;5.900;2023-11-22T06:48:15;11.75;;;8.82;;
50337;SDS011;46221;51.178;5.900;2023-11-22T06:50:41;12.38;;;9.07;;
50337;SDS011;46221;51.178;5.900;2023-11-22T06:53:08;11.50;;;8.75;;
50337;SDS011;46221;51.178;5.900;2023-11-22T06:55:35;11.15;;;8.52;;
50337;SDS011;46221;51.178;5.900;2023-11-22T06:58:01;12.82;;;9.27;;
50337;SDS011;46221;51.178;5.900;2023-11-22T07:00:28;10.65;;;8.77;;
50337;SDS011;46221;51.178;5.900;2023-11-22T07:02:54;11.80;;;8.90;;
50337;SDS011;46221;51.178;5.900;2023-11-22T07:05:21;13.60;;;9.30;;
50337;SDS011;46221;51.178;5.900;2023-11-22T07:07:48;11.02;;;8.65;;
50337;SDS011;46221;51.178;5.900;2023-11-22T07:10:15;10.48;;;8.45;;
50337;SDS011;46221;51.178;5.900;2023-11-22T07:12:42;9.98;;;8.70;;
50337;SDS011;46221;51.178;5.900;2023-11-22T07:15:09;13.20;;;8.07;;
50337;SDS011;46221;51.178;5.900;2023-11-22T07:17:36;12.35;;;8.98;;
50337;SDS011;46221;51.178;5.900;2023-11-22T07:20:02;12.75;;;9.13;;
50337;SDS011;46221;51.178;5.900;2023-11-22T07:22:34;10.80;;;8.98;;
50337;SDS011;46221;51.178;5.900;2023-11-22T07:25:00;11.95;;;8.90;;
50337;SDS011;46221;51.178;5.900;2023-11-22T07:27:28;14.98;;;8.73;;
50337;SDS011;46221;51.178;5.900;2023-11-22T07:29:55;13.27;;;9.20;;
50337;SDS011;46221;51.178;5.900;2023-11-22T07:32:22;12.77;;;9.20;;
50337;SDS011;46221;51.178;5.900;2023-11-22T07:34:48;12.52;;;9.07;;
50337;SDS011;46221;51.178;5.900;2023-11-22T07:37:15;9.60;;;7.95;;
50337;SDS011;46221;51.178;5.900;2023-11-22T07:39:42;11.07;;;7.70;;
50337;SDS011;46221;51.178;5.900;2023-11-22T07:42:10;12.27;;;8.73;;
50337;SDS011;46221;51.178;5.900;2023-11-22T07:44:36;11.88;;;9.43;;
50337;SDS011;46221;51.178;5.900;2023-11-22T07:47:04;11.57;;;9.00;;
50337;SDS011;46221;51.178;5.900;2023-11-22T07:49:38;12.43;;;9.52;;
50337;SDS011;46221;51.178;5.900;2023-11-22T07:52:05;10.80;;;9.02;;
50337;SDS011;46221;51.178;5.900;2023-11-22T07:54:32;13.65;;;9.43;;
50337;SDS011;46221;51.178;5.900;2023-11-22T07:56:58;12.73;;;10.63;;
50337;SDS011;46221;51.178;5.900;2023-11-22T07:59:24;12.32;;;9.48;;
50337;SDS011;46221;51.178;5.900;2023-11-22T08:01:52;12.77;;;9.75;;
50337;SDS011;46221;51.178;5.900;2023-11-22T08:04:22;14.82;;;9.93;;
50337;SDS011;46221;51.178;5.900;2023-11-22T08:06:49;14.00;;;10.02;;
50337;SDS011;46221;51.178;5.900;2023-11-22T08:09:15;13.52;;;10.93;;
50337;SDS011;46221;51.178;5.900;2023-11-22T08:11:42;14.73;;;10.15;;
50337;SDS011;46221;51.178;5.900;2023-11-22T08:14:09;14.48;;;10.82;;
50337;SDS011;46221;51.178;5.900;2023-11-22T08:16:35;14.25;;;10.45;;
50337;SDS011;46221;51.178;5.900;2023-11-22T08:19:04;16.77;;;11.10;;
50337;SDS011;46221;51.178;5.900;2023-11-22T08:21:34;12.75;;;10.00;;
50337;SDS011;46221;51.178;5.900;2023-11-22T08:24:02;15.70;;;10.85;;
50337;SDS011;46221;51.178;5.900;2023-11-22T08:26:29;13.88;;;10.98;;
50337;SDS011;46221;51.178;5.900;2023-11-22T08:28:56;13.88;;;10.38;;
50337;SDS011;46221;51.178;5.900;2023-11-22T08:31:22;13.65;;;9.95;;
50337;SDS011;46221;51.178;5.900;2023-11-22T08:33:49;13.27;;;10.20;;
50337;SDS011;46221;51.178;5.900;2023-11-22T08:36:15;13.23;;;10.00;;
50337;SDS011;46221;51.178;5.900;2023-11-22T08:38:42;13.07;;;10.32;;
50337;SDS011;46221;51.178;5.900;2023-11-22T08:41:09;11.65;;;9.63;;
50337;SDS011;46221;51.178;5.900;2023-11-22T08:43:40;12.55;;;9.88;;
50337;SDS011;46221;51.178;5.900;2023-11-22T08:46:07;11.48;;;9.50;;
50337;SDS011;46221;51.178;5.900;2023-11-22T08:48:40;13.07;;;9.63;;
50337;SDS011;46221;51.178;5.900;2023-11-22T08:51:10;12.25;;;10.25;;
50337;SDS011;46221;51.178;5.900;2023-11-22T08:53:37;12.13;;;9.65;;
50337;SDS011;46221;51.178;5.900;2023-11-22T08:56:04;12.30;;;10.35;;
50337;SDS011;46221;51.178;5.900;2023-11-22T08:58:32;15.75;;;11.02;;
50337;SDS011;46221;51.178;5.900;2023-11-22T09:01:00;13.98;;;10.63;;
50337;SDS011;46221;51.178;5.900;2023-11-22T09:03:26;12.68;;;9.98;;
50337;SDS011;46221;51.178;5.900;2023-11-22T09:05:54;13.25;;;9.80;;
50337;SDS011;46221;51.178;5.900;2023-11-22T09:08:21;10.73;;;8.95;;
50337;SDS011;46221;51.178;5.900;2023-11-22T09:10:53;12.10;;;9.32;;
50337;SDS011;46221;51.178;5.900;2023-11-22T09:13:20;13.13;;;8.85;;
50337;SDS011;46221;51.178;5.900;2023-11-22T09:15:48;12.50;;;8.90;;
50337;SDS011;46221;51.178;5.900;2023-11-22T09:18:14;10.30;;;8.27;;
50337;SDS011;46221;51.178;5.900;2023-11-22T09:20:41;12.27;;;9.32;;
50337;SDS011;46221;51.178;5.900;2023-11-22T09:23:10;11.73;;;9.07;;
50337;SDS011;46221;51.178;5.900;2023-11-22T09:25:37;11.95;;;9.50;;
50337;SDS011;46221;51.178;5.900;2023-11-22T09:28:04;10.80;;;9.05;;
50337;SDS011;46221;51.178;5.900;2023-11-22T09:30:33;13.43;;;9.60;;
50337;SDS011;46221;51.178;5.900;2023-11-22T09:33:09;12.70;;;9.30;;
50337;SDS011;46221;51.178;5.900;2023-11-22T09:35:40;12.43;;;10.40;;
50337;SDS011;46221;51.178;5.900;2023-11-22T09:38:07;11.00;;;8.70;;
50337;SDS011;46221;51.178;5.900;2023-11-22T09:40:41;11.90;;;9.25;;
50337;SDS011;46221;51.178;5.900;2023-11-22T09:43:07;12.60;;;9.50;;
50337;SDS011;46221;51.178;5.900;2023-11-22T09:45:34;12.20;;;9.45;;
50337;SDS011;46221;51.178;5.900;2023-11-22T09:48:02;11.45;;;9.35;;
50337;SDS011;46221;51.178;5.900;2023-11-22T09:50:36;13.48;;;9.50;;
50337;SDS011;46221;51.178;5.900;2023-11-22T09:53:11;13.98;;;10.40;;
50337;SDS011;46221;51.178;5.900;2023-11-22T09:55:38;13.02;;;9.68;;
50337;SDS011;46221;51.178;5.900;2023-11-22T09:58:09;12.57;;;9.32;;
50337;SDS011;46221;51.178;5.900;2023-11-22T10:00:40;13.13;;;10.32;;
50337;SDS011;46221;51.178;5.900;2023-11-22T10:03:07;12.18;;;9.30;;
50337;SDS011;46221;51.178;5.900;2023-11-22T10:05:39;12.30;;;9.63;;
50337;SDS011;46221;51.178;5.900;2023-11-22T10:08:05;11.88;;;9.30;;
50337;SDS011;46221;51.178;5.900;2023-11-22T10:10:31;12.65;;;9.68;;
50337;SDS011;46221;51.178;5.900;2023-11-22T10:12:58;11.75;;;9.07;;
50337;SDS011;46221;51.178;5.900;2023-11-22T10:15:27;11.85;;;9.70;;
50337;SDS011;46221;51.178;5.900;2023-11-22T10:17:57;12.65;;;9.40;;
50337;SDS011;46221;51.178;5.900;2023-11-22T10:20:25;11.65;;;9.15;;
50337;SDS011;46221;51.178;5.900;2023-11-22T10:22:54;12.32;;;9.32;;
50337;SDS011;46221;51.178;5.900;2023-11-22T10:25:21;14.13;;;9.57;;
50337;SDS011;46221;51.178;5.900;2023-11-22T10:27:49;13.68;;;9.32;;
50337;SDS011;46221;51.178;5.900;2023-11-22T10:30:17;12.50;;;9.43;;
50337;SDS011;46221;51.178;5.900;2023-11-22T10:32:45;12.65;;;9.43;;
50337;SDS011;46221;51.178;5.900;2023-11-22T10:35:12;11.68;;;8.85;;
50337;SDS011;46221;51.178;5.900;2023-11-22T10:37:41;12.98;;;9.60;;
50337;SDS011;46221;51.178;5.900;2023-11-22T10:40:08;11.90;;;9.10;;
50337;SDS011;46221;51.178;5.900;2023-11-22T10:42:36;13.82;;;8.82;;
50337;SDS011;46221;51.178;5.900;2023-11-22T10:45:04;11.93;;;9.10;;
50337;SDS011;46221;51.178;5.900;2023-11-22T10:47:35;12.90;;;9.10;;
50337;SDS011;46221;51.178;5.900;2023-11-22T10:50:04;13.38;;;8.38;;
50337;SDS011;46221;51.178;5.900;2023-11-22T10:52:31;12.93;;;8.77;;
50337;SDS011;46221;51.178;5.900;2023-11-22T10:55:01;13.13;;;9.05;;
50337;SDS011;46221;51.178;5.900;2023-11-22T10:57:29;11.10;;;8.52;;
50337;SDS011;46221;51.178;5.900;2023-11-22T10:59:57;12.18;;;8.70;;
50337;SDS011;46221;51.178;5.900;2023-11-22T11:02:27;11.52;;;8.90;;
50337;SDS011;46221;51.178;5.900;2023-11-22T11:04:56;12.80;;;9.27;;
50337;SDS011;46221;51.178;5.900;2023-11-22T11:07:25;10.93;;;8.70;;
50337;SDS011;46221;51.178;5.900;2023-11-22T11:09:54;13.25;;;9.27;;
50337;SDS011;46221;51.178;5.900;2023-11-22T11:12:25;10.32;;;7.78;;
50337;SDS011;46221;51.178;5.900;2023-11-22T11:14:51;13.73;;;8.90;;
50337;SDS011;46221;51.178;5.900;2023-11-22T11:17:18;12.45;;;8.77;;
50337;SDS011;46221;51.178;5.900;2023-11-22T11:19:45;10.65;;;8.70;;
50337;SDS011;46221;51.178;5.900;2023-11-22T11:22:11;13.93;;;8.88;;
50337;SDS011;46221;51.178;5.900;2023-11-22T11:24:39;11.80;;;8.02;;
50337;SDS011;46221;51.178;5.900;2023-11-22T11:27:06;10.18;;;8.13;;
50337;SDS011;46221;51.178;5.900;2023-11-22T11:29:35;12.45;;;9.02;;
50337;SDS011;46221;51.178;5.900;2023-11-22T11:32:03;12.40;;;8.88;;
50337;SDS011;46221;51.178;5.900;2023-11-22T11:34:29;11.23;;;8.63;;
50337;SDS011;46221;51.178;5.900;2023-11-22T11:36:56;10.57;;;8.32;;
50337;SDS011;46221;51.178;5.900;2023-11-22T11:39:27;13.32;;;8.90;;
50337;SDS011;46221;51.178;5.900;2023-11-22T11:42:07;12.05;;;8.93;;
50337;SDS011;46221;51.178;5.900;2023-11-22T11:44:33;10.60;;;8.45;;
50337;SDS011;46221;51.178;5.900;2023-11-22T11:47:11;11.68;;;8.07;;
50337;SDS011;46221;51.178;5.900;2023-11-22T11:49:37;11.50;;;9.10;;
50337;SDS011;46221;51.178;5.900;2023-11-22T11:52:06;11.50;;;7.82;;
50337;SDS011;46221;51.178;5.900;2023-11-22T11:54:33;14.45;;;8.90;;
50337;SDS011;46221;51.178;5.900;2023-11-22T11:57:01;12.40;;;8.43;;
50337;SDS011;46221;51.178;5.900;2023-11-22T11:59:28;11.90;;;8.18;;
50337;SDS011;46221;51.178;5.900;2023-11-22T12:01:56;9.95;;;8.20;;
50337;SDS011;46221;51.178;5.900;2023-11-22T12:04:23;9.85;;;7.90;;
50337;SDS011;46221;51.178;5.900;2023-11-22T12:06:50;10.38;;;8.32;;
50337;SDS011;46221;51.178;5.900;2023-11-22T12:09:24;11.23;;;8.18;;
50337;SDS011;46221;51.178;5.900;2023-11-22T12:11:51;11.63;;;8.75;;
50337;SDS011;46221;51.178;5.900;2023-11-22T12:14:24;11.73;;;8.35;;
50337;SDS011;46221;51.178;5.900;2023-11-22T12:16:54;12.07;;;8.52;;
50337;SDS011;46221;51.178;5.900;2023-11-22T12:19:24;10.68;;;8.00;;
50337;SDS011;46221;51.178;5.900;2023-11-22T12:21:51;10.13;;;7.85;;
50337;SDS011;46221;51.178;5.900;2023-11-22T12:24:17;10.05;;;7.88;;
50337;SDS011;46221;51.178;5.900;2023-11-22T12:26:45;11.50;;;9.10;;
50337;SDS011;46221;51.178;5.900;2023-11-22T12:29:12;11.35;;;8.63;;
50337;SDS011;46221;51.178;5.900;2023-11-22T12:31:44;11.18;;;8.60;;
50337;SDS011;46221;51.178;5.900;2023-11-22T12:34:15;11.45;;;8.25;;
50337;SDS011;46221;51.178;5.900;2023-11-22T12:36:42;10.85;;;8.25;;
50337;SDS011;46221;51.178;5.900;2023-11-22T12:39:08;9.98;;;7.88;;
50337;SDS011;46221;51.178;5.900;2023-11-22T12:41:43;12.27;;;8.75;;
50337;SDS011;46221;51.178;5.900;2023-11-22T12:44:11;11.48;;;8.52;;
50337;SDS011;46221;51.178;5.900;2023-11-22T12:46:48;12.45;;;8.57;;
50337;SDS011;46221;51.178;5.900;2023-11-22T12:49:24;11.40;;;8.43;;
50337;SDS011;46221;51.178;5.900;2023-11-22T12:51:54;9.63;;;7.88;;
50337;SDS011;46221;51.178;5.900;2023-11-22T12:54:20;10.85;;;8.68;;
50337;SDS011;46221;51.178;5.900;2023-11-22T12:56:50;10.85;;;8.48;;
50337;SDS011;46221;51.178;5.900;2023-11-22T12:59:17;10.45;;;8.27;;
50337;SDS011;46221;51.178;5.900;2023-11-22T13:01:44;9.68;;;7.45;;
50337;SDS011;46221;51.178;5.900;2023-11-22T13:04:11;9.35;;;7.90;;
50337;SDS011;46221;51.178;5.900;2023-11-22T13:06:42;11.13;;;7.80;;
50337;SDS011;46221;51.178;5.900;2023-11-22T13:09:08;11.05;;;8.50;;
50337;SDS011;46221;51.178;5.900;2023-11-22T13:11:41;9.57;;;7.68;;
50337;SDS011;46221;51.178;5.900;2023-11-22T13:14:08;9.60;;;8.20;;
50337;SDS011;46221;51.178;5.900;2023-11-22T13:16:35;9.55;;;7.78;;
50337;SDS011;46221;51.178;5.900;2023-11-22T13:19:03;9.70;;;7.47;;
50337;SDS011;46221;51.178;5.900;2023-11-22T13:21:30;11.20;;;8.27;;
50337;SDS011;46221;51.178;5.900;2023-11-22T13:23:57;10.27;;;8.50;;
50337;SDS011;46221;51.178;5.900;2023-11-22T13:26:25;11.55;;;8.30;;
50337;SDS011;46221;51.178;5.900;2023-11-22T13:28:52;10.73;;;8.18;;
50337;SDS011;46221;51.178;5.900;2023-11-22T13:31:20;9.25;;;7.55;;
50337;SDS011;46221;51.178;5.900;2023-11-22T13:33:48;11.35;;;7.75;;
50337;SDS011;46221;51.178;5.900;2023-11-22T13:36:14;10.98;;;8.40;;
50337;SDS011;46221;51.178;5.900;2023-11-22T13:38:41;10.52;;;8.73;;
50337;SDS011;46221;51.178;5.900;2023-11-22T13:41:07;9.65;;;7.55;;
50337;SDS011;46221;51.178;5.900;2023-11-22T13:43:34;10.18;;;8.20;;
50337;SDS011;46221;51.178;5.900;2023-11-22T13:46:01;12.07;;;8.73;;
50337;SDS011;46221;51.178;5.900;2023-11-22T13:48:27;11.82;;;8.52;;
50337;SDS011;46221;51.178;5.900;2023-11-22T13:50:54;9.85;;;8.07;;
50337;SDS011;46221;51.178;5.900;2023-11-22T13:53:20;10.27;;;8.02;;
50337;SDS011;46221;51.178;5.900;2023-11-22T13:55:48;10.65;;;8.15;;
50337;SDS011;46221;51.178;5.900;2023-11-22T13:58:17;12.30;;;8.63;;
50337;SDS011;46221;51.178;5.900;2023-11-22T14:00:44;11.02;;;8.15;;
50337;SDS011;46221;51.178;5.900;2023-11-22T14:03:13;10.85;;;7.53;;
50337;SDS011;46221;51.178;5.900;2023-11-22T14:05:40;10.00;;;8.32;;
50337;SDS011;46221;51.178;5.900;2023-11-22T14:08:07;10.88;;;8.10;;
50337;SDS011;46221;51.178;5.900;2023-11-22T14:10:34;11.35;;;8.80;;
50337;SDS011;46221;51.178;5.900;2023-11-22T14:13:02;10.77;;;8.40;;
50337;SDS011;46221;51.178;5.900;2023-11-22T14:15:30;12.43;;;8.68;;
50337;SDS011;46221;51.178;5.900;2023-11-22T14:17:58;11.23;;;8.57;;
50337;SDS011;46221;51.178;5.900;2023-11-22T14:20:24;10.38;;;8.57;;
50337;SDS011;46221;51.178;5.900;2023-11-22T14:22:51;10.60;;;8.55;;
50337;SDS011;46221;51.178;5.900;2023-11-22T14:25:19;11.77;;;8.95;;
50337;SDS011;46221;51.178;5.900;2023-11-22T14:27:46;9.88;;;8.48;;
50337;SDS011;46221;51.178;5.900;2023-11-22T14:30:13;10.38;;;8.05;;
50337;SDS011;46221;51.178;5.900;2023-11-22T14:32:44;11.13;;;7.90;;
50337;SDS011;46221;51.178;5.900;2023-11-22T14:35:11;11.13;;;8.48;;
50337;SDS011;46221;51.178;5.900;2023-11-22T14:37:39;11.63;;;8.68;;
50337;SDS011;46221;51.178;5.900;2023-11-22T14:40:09;10.38;;;8.30;;